Date,TemperatureHighF,TemperatureAvgF,TemperatureLowF,DewpointHighF,DewpointAvgF,DewpointLowF,HumidityHigh,HumidityAvg,HumidityLow,PressureMaxIn,PressureMinIn,WindSpeedMaxMPH,WindSpeedAvgMPH,GustSpeedMaxMPH,PrecipitationSumIn
2013-1-1,32.9,27.1,14.4,6.0,-20.2,-32.4,32,5,1,29.52,29.38,0,0,0,0.00
2013-1-2,37.3,18.3,6.8,18.2,-9.7,-38.1,59,32,1,29.61,29.50,0,0,0,0.01
2013-1-3,35.5,23.8,9.7,20.4,2.5,-19.3,62,43,2,29.64,29.52,0,0,0,0.02
2013-1-4,36.2,26.8,17.1,21.1,4.2,-38.5,59,41,1,29.68,29.63,0,0,0,0.00
2013-1-5,46.4,31.1,18.4,30.0,-6.9,-32.7,58,20,1,29.66,29.46,0,0,0,0.01
2013-1-6,37.1,32.0,24.3,16.5,-2.5,-18.1,55,24,1,29.70,29.35,0,0,0,0.00
2013-1-7,41.8,28.5,16.2,27.7,0.8,-30.6,62,35,1,29.78,29.56,0,0,0,0.00
2013-1-8,49.1,34.9,23.6,32.7,8.5,-37.0,62,37,1,29.63,29.53,0,0,0,0.00
2013-1-9,54.9,42.5,29.2,39.9,14.3,-20.7,60,35,1,29.85,29.51,0,0,0,0.08
2013-1-10,45.2,35.8,26.1,28.9,-5.6,-23.1,60,16,1,29.85,29.38,0,0,0,0.07
2013-1-11,62.8,53.3,45.2,19.5,-1.4,-8.2,19,2,1,29.38,29.17,0,0,0,0.63
2013-1-12,72.2,55.1,47.0,53.6,2.9,-23.0,52,5,1,29.34,29.05,0,0,0,0.94
2013-1-13,57.6,38.0,23.2,1.4,-13.8,-25.4,1,1,1,29.56,29.00,0,0,0,1.12
2013-1-14,26.5,22.4,17.8,-14.2,-26.0,-29.5,17,2,1,29.79,29.55,0,0,0,0.00
2013-1-15,35.6,27.2,20.5,17.2,-15.2,-27.5,48,11,1,29.73,29.44,0,0,0,0.00
2013-1-16,41.9,30.6,23.4,25.8,-1.7,-25.3,55,26,1,29.44,29.31,0,0,0,0.00
2013-1-17,44.3,33.5,21.2,28.9,4.7,-20.8,60,34,1,29.76,29.43,0,0,0,0.00
2013-1-18,45.0,30.9,17.1,24.7,7.4,-29.2,58,40,1,29.83,29.48,0,0,0,0.00
2013-1-19,59.2,47.0,38.7,35.4,29.4,23.4,58,51,39,29.49,29.21,0,0,0,0.00
2013-1-20,45.9,29.1,22.5,27.1,15.1,10.9,61,56,43,29.63,29.26,0,0,0,0.01
2013-1-21,23.0,16.1,8.8,11.5,4.2,-2.2,62,59,43,29.60,29.47,0,0,0,0.00
2013-1-22,22.1,11.9,4.1,5.0,-0.2,-4.8,67,58,44,29.73,29.60,0,0,0,0.00
2013-1-23,23.4,18.1,8.8,12.4,5.6,-1.0,64,58,46,29.68,29.44,0,0,0,0.00
2013-1-24,31.0,20.8,14.0,14.0,5.6,-31.0,64,53,9,29.94,29.50,0,0,0,0.00
2013-1-25,28.4,23.4,18.4,17.1,7.2,-28.0,63,52,2,29.73,29.38,0,0,0,0.01
2013-1-26,37.8,24.2,16.7,22.7,9.0,-13.1,63,53,24,29.77,29.45,0,0,0,0.02
2013-1-27,38.2,28.4,17.3,22.8,2.6,-29.1,59,36,1,29.75,29.40,0,0,0,0.28
2013-1-28,52.6,47.3,38.0,-2.5,-6.6,-13.8,1,1,1,29.44,29.32,0,0,0,0.14
2013-1-29,63.4,56.2,50.0,6.0,0.3,-4.5,1,1,1,29.35,28.79,0,0,0,0.00
2013-1-30,65.2,46.8,29.3,6.9,-6.9,-20.5,15,1,1,28.97,28.63,0,0,0,0.87
2013-1-31,30.8,23.7,10.8,13.6,-2.5,-35.9,63,35,1,29.46,28.97,0,0,0,0.00
2013-2-1,23.4,12.8,5.8,9.6,1.9,-4.6,65,61,52,29.75,29.46,0,0,0,0.00
2013-2-2,29.7,24.2,17.6,12.1,-5.5,-28.3,63,30,1,29.61,29.33,0,0,0,0.00
2013-2-3,25.9,19.5,11.9,12.7,4.1,-4.1,60,51,34,29.44,29.30,0,0,0,0.00
2013-2-4,41.4,29.3,21.1,22.8,9.2,-18.5,61,45,1,29.43,29.14,0,0,0,0.01
2013-2-5,36.9,30.4,21.4,21.9,0.0,-26.7,55,30,1,29.37,29.18,0,0,0,0.00
2013-2-6,46.4,34.4,29.5,29.3,13.3,-17.6,61,44,1,29.61,29.38,0,0,0,0.00
2013-2-7,60.1,38.5,29.2,39.2,5.6,-29.7,62,27,1,29.54,29.16,0,0,0,0.15
2013-2-8,42.5,35.8,30.2,25.0,2.2,-17.4,64,29,1,29.68,29.17,0,0,0,0.01
2013-2-9,46.3,32.6,19.1,31.1,17.2,-44.1,66,55,1,29.75,29.52,0,0,0,0.00
2013-2-10,50.8,43.0,32.8,37.4,19.5,-5.0,66,45,1,29.52,29.06,0,0,0,0.06
2013-2-11,51.8,41.1,31.9,36.8,22.7,-4.8,63,52,1,29.39,29.05,0,0,0,0.02
2013-2-12,50.8,36.2,27.0,31.9,18.9,-3.7,64,50,24,29.49,29.29,0,0,0,0.00
2013-2-13,51.7,34.8,27.0,32.0,9.7,-48.5,64,39,1,29.29,29.13,0,0,0,0.00
2013-2-14,52.9,39.1,34.9,39.0,9.7,-18.4,67,36,1,29.35,29.16,0,0,0,0.00
2013-2-15,39.2,30.4,18.9,27.9,14.3,-20.4,70,53,6,29.51,29.33,0,0,0,0.01
2013-2-16,28.8,22.4,18.9,15.4,11.0,2.2,70,61,44,29.49,29.43,0,0,0,0.00
2013-2-17,40.9,23.8,7.4,18.4,8.4,-0.8,71,54,29,29.58,29.47,0,0,0,0.02
2013-2-18,58.7,41.6,26.1,41.0,25.0,-7.6,64,54,1,29.49,28.99,0,0,0,0.11
2013-2-19,45.7,26.5,22.3,18.5,13.7,-15.9,70,62,1,29.47,28.93,0,0,0,0.11
2013-2-20,31.9,21.5,13.0,17.6,11.5,5.1,72,65,50,29.67,29.47,0,0,0,0.00
2013-2-21,39.6,26.9,18.4,25.2,14.4,-6.6,70,60,21,29.69,29.36,0,0,0,0.00
2013-2-22,38.0,34.3,29.3,20.9,-6.5,-20.2,52,16,1,29.37,29.20,0,0,0,0.21
2013-2-23,43.6,32.3,25.0,28.2,19.7,9.2,68,60,47,29.35,29.27,0,0,0,0.09
2013-2-24,47.2,31.2,19.4,30.3,18.8,-2.2,69,60,32,29.49,29.32,0,0,0,0.00
2013-2-25,55.8,35.6,20.7,34.7,21.4,-8.7,68,57,20,29.51,29.23,0,0,0,0.00
2013-2-26,42.1,37.6,33.5,26.1,-1.9,-17.4,68,21,1,29.24,28.75,0,0,0,1.01
2013-2-27,41.9,36.3,32.8,11.7,-12.3,-17.8,36,6,1,29.05,28.83,0,0,0,0.03
2013-2-28,39.2,35.1,32.6,19.9,-7.7,-22.4,46,12,1,29.33,29.03,0,0,0,0.02
2013-3-1,35.6,33.0,30.6,17.9,-3.3,-18.9,53,21,1,29.42,29.30,0,0,0,0.02
2013-3-2,31.5,29.3,26.6,20.7,16.6,-13.0,66,59,17,29.45,29.40,0,0,0,0.00
2013-3-3,35.6,28.1,18.9,23.2,14.7,-13.0,68,58,16,29.46,29.40,0,0,0,0.02
2013-3-4,42.8,31.0,16.4,26.8,18.9,-7.6,66,61,20,29.48,29.32,0,0,0,0.00
2013-3-5,38.5,35.3,29.2,24.9,3.8,-20.7,63,30,1,29.34,29.01,0,0,0,0.12
2013-3-6,36.5,31.1,27.9,17.5,-13.0,-21.7,47,10,1,29.62,29.10,0,0,0,0.01
2013-3-7,41.4,33.7,30.1,30.5,7.7,-20.0,67,41,1,29.74,29.60,0,0,0,0.17
2013-3-8,52.6,34.6,20.5,32.9,18.6,-20.3,68,53,12,29.83,29.71,0,0,0,0.02
2013-3-9,53.8,43.8,30.2,38.4,30.8,19.1,66,60,53,29.71,29.32,0,0,0,0.00
2013-3-10,68.8,57.2,50.8,42.8,39.0,35.6,62,51,36,29.32,29.10,0,0,0,0.01
2013-3-11,59.0,46.6,34.7,45.2,10.2,-10.9,65,25,1,29.22,28.97,0,0,0,0.17
2013-3-12,48.2,36.8,32.6,31.1,17.7,-16.9,67,48,1,29.38,29.22,0,0,0,0.01
2013-3-13,34.0,29.8,26.8,22.8,18.0,3.1,68,62,33,29.66,29.37,0,0,0,0.01
2013-3-14,50.8,33.0,18.9,27.1,17.7,4.6,69,55,28,29.69,29.50,0,0,0,0.00
2013-3-15,52.2,40.5,30.4,38.4,17.7,-19.6,67,44,1,29.50,29.11,0,0,0,0.00
2013-3-16,48.1,42.2,35.5,32.4,13.5,-12.8,60,34,1,29.40,28.96,0,0,0,0.03
2013-3-17,42.8,35.3,30.8,30.2,23.7,16.0,69,63,50,29.52,29.32,0,0,0,0.00
2013-3-18,43.9,37.6,33.5,21.7,-7.5,-17.2,59,11,1,29.33,28.94,0,0,0,0.40
2013-3-19,44.8,33.9,25.6,23.6,18.9,12.1,69,55,33,29.45,29.17,0,0,0,0.01
2013-3-20,36.2,28.6,22.7,18.9,15.0,8.8,69,57,41,29.45,29.36,0,0,0,0.00
2013-3-21,42.3,26.8,17.3,19.6,12.8,9.5,71,57,36,29.39,29.32,0,0,0,0.00
2013-3-22,53.8,32.1,15.8,23.9,15.7,8.4,72,54,27,29.42,29.34,0,0,0,0.00
2013-3-23,56.7,39.8,28.8,31.3,24.1,17.1,69,55,36,29.43,29.27,0,0,0,0.00
2013-3-24,37.8,33.4,29.2,25.6,9.2,-20.7,70,44,1,29.27,28.83,0,0,0,0.04
2013-3-25,36.9,32.3,28.8,24.7,-8.0,-21.0,63,16,1,29.34,28.85,0,0,0,0.19
2013-3-26,42.8,35.7,31.5,30.0,15.9,-18.1,69,49,7,29.60,29.34,0,0,0,0.04
2013-3-27,47.9,35.4,26.1,29.1,21.8,12.2,69,58,39,29.67,29.58,0,0,0,0.00
2013-3-28,56.5,37.5,25.0,32.3,23.3,16.0,71,58,36,29.72,29.64,0,0,0,0.00
2013-3-29,64.1,42.4,26.8,39.3,26.6,5.2,70,55,29,29.68,29.56,0,0,0,0.00
2013-3-30,60.8,45.5,27.4,37.2,28.0,-12.5,70,52,12,29.59,29.28,0,0,0,0.00
2013-3-31,65.5,51.6,43.9,44.7,36.1,23.5,69,56,38,29.28,29.11,0,0,0,0.02
2013-4-1,50.0,40.8,33.1,37.0,24.5,16.3,70,54,29,29.50,29.19,0,0,0,0.00
2013-4-2,52.4,36.0,24.1,24.0,18.2,13.2,72,51,25,29.63,29.50,0,0,0,0.00
2013-4-3,58.0,36.3,20.3,27.4,18.1,12.7,74,50,27,29.77,29.62,0,0,0,0.00
2013-4-4,71.3,45.4,30.6,31.5,21.7,16.7,65,42,18,29.68,29.35,0,0,0,0.00
2013-4-5,65.9,45.3,30.2,36.8,26.7,18.1,68,50,28,29.50,29.33,0,0,0,0.00
2013-4-6,68.8,53.5,35.3,41.0,32.6,23.6,64,47,33,29.51,29.17,0,0,0,0.00
2013-4-7,80.3,65.6,55.1,48.3,41.8,36.1,60,43,24,29.32,29.14,0,0,0,0.00
2013-4-8,75.6,63.5,54.4,59.1,48.7,23.9,70,59,28,29.33,29.19,0,0,0,0.00
2013-4-9,84.2,68.5,51.5,61.2,50.3,16.7,67,53,23,29.37,29.24,0,0,0,0.00
2013-4-10,84.8,70.3,58.0,66.7,48.9,1.6,64,51,1,29.28,29.12,0,0,0,0.17
2013-4-11,67.1,60.5,50.8,23.3,4.0,-4.0,21,2,1,29.16,28.91,0,0,0,0.84
2013-4-12,50.6,42.8,38.3,33.4,20.3,-10.1,64,44,1,29.27,28.95,0,0,0,0.05
2013-4-13,54.7,44.6,40.1,37.7,27.9,18.7,64,52,40,29.37,29.27,0,0,0,0.00
2013-4-14,75.6,56.3,38.5,49.0,35.3,17.4,58,46,35,29.38,29.18,0,0,0,0.00
2013-4-15,71.5,62.6,53.6,54.9,44.6,23.8,60,52,31,29.32,29.20,0,0,0,0.00
2013-4-16,63.4,54.4,48.2,44.7,9.0,-5.8,51,14,1,29.54,29.23,0,0,0,1.36
2013-4-17,75.6,59.6,47.9,30.3,2.9,-20.5,22,1,1,29.58,29.25,0,0,0,0.50
2013-4-18,77.4,65.3,59.4,50.4,10.0,-24.0,44,4,1,29.26,28.93,0,0,0,1.36
2013-4-19,59.6,41.1,36.5,23.6,2.8,-14.9,49,20,1,29.32,28.91,0,0,0,0.76
2013-4-20,56.0,40.4,32.2,32.9,14.6,-16.6,57,37,1,29.75,29.32,0,0,0,0.04
2013-4-21,65.3,44.4,28.4,38.2,24.7,5.6,56,47,29,29.88,29.72,0,0,0,0.00
2013-4-22,76.7,53.2,31.3,44.3,30.1,7.8,57,43,22,29.72,29.46,0,0,0,0.00
2013-4-23,69.1,58.1,49.3,51.9,27.6,0.5,57,36,1,29.47,29.15,0,0,0,0.46
2013-4-24,56.3,43.6,35.8,32.2,-1.4,-17.7,53,12,1,29.57,29.14,0,0,0,0.92
2013-4-25,61.0,45.2,34.0,37.3,13.4,-16.9,56,30,1,29.72,29.55,0,0,0,0.00
2013-4-26,67.7,49.5,32.4,41.0,22.1,-18.1,55,37,1,29.79,29.67,0,0,0,0.00
2013-4-27,67.0,53.9,40.9,44.9,24.7,-3.3,54,34,1,29.69,29.37,0,0,0,0.08
2013-4-28,67.3,56.3,53.3,9.0,0.4,-1.9,1,1,1,29.37,29.19,0,0,0,0.49
2013-4-29,73.3,60.6,54.4,51.6,13.5,-1.1,47,13,1,29.35,29.25,0,0,0,0.01
2013-4-30,85.3,67.3,52.0,60.9,29.8,-2.9,49,26,1,29.40,29.28,0,0,0,0.00
2013-5-1,91.3,71.3,51.1,63.5,36.3,-3.6,52,29,1,29.51,29.39,0,0,0,0.00
2013-5-2,84.6,70.3,61.4,59.0,34.4,4.2,52,29,1,29.55,29.42,0,0,0,0.00
2013-5-3,81.7,69.4,61.6,58.9,32.5,4.3,51,28,1,29.43,29.27,0,0,0,0.00
2013-5-4,75.2,64.0,56.0,53.7,41.9,-3.6,56,46,1,29.37,29.30,0,0,0,0.01
2013-5-5,63.7,57.7,52.9,36.4,8.0,-2.1,38,10,1,29.37,29.28,0,0,0,0.11
2013-5-6,76.3,61.2,49.3,51.5,15.0,-5.0,45,14,1,29.34,29.26,0,0,0,0.01
2013-5-7,85.0,65.2,51.5,59.1,23.0,-13.9,48,20,1,29.36,29.30,0,0,0,0.19
2013-5-8,88.6,66.7,52.6,63.8,22.9,-2.5,46,18,1,29.38,29.32,0,0,0,0.05
2013-5-9,84.1,64.6,54.2,57.6,16.8,-1.2,47,13,1,29.37,29.26,0,0,0,0.57
2013-5-10,76.7,61.2,48.6,18.0,4.2,-5.5,12,1,1,29.28,29.16,0,0,0,0.11
2013-5-11,70.9,51.7,44.3,46.3,0.3,-23.0,43,5,1,29.39,29.22,0,0,0,0.12
2013-5-12,66.1,47.4,34.7,38.4,14.5,-16.4,52,28,1,29.48,29.38,0,0,0,0.00
2013-5-13,76.1,52.2,34.2,41.3,17.9,-16.8,51,27,1,29.55,29.46,0,0,0,0.00
2013-5-14,94.3,68.8,51.1,63.7,46.0,31.2,51,45,26,29.46,29.16,0,0,0,0.00
2013-5-15,91.6,77.8,67.1,65.3,48.3,9.0,50,37,1,29.24,29.16,0,0,0,0.28
2013-5-16,93.6,74.0,62.8,65.5,24.3,5.5,44,13,1,29.34,29.20,0,0,0,0.00
2013-5-17,88.6,68.7,60.5,63.8,16.2,3.7,44,8,1,29.41,29.33,0,0,0,0.17
2013-5-18,85.9,69.5,60.7,54.5,14.2,3.8,35,5,1,29.44,29.33,0,0,0,0.05
2013-5-19,92.3,74.3,59.8,65.0,24.8,3.1,42,13,1,29.36,29.22,0,0,0,0.00
2013-5-20,89.3,77.8,69.8,52.7,21.5,-11.2,30,7,1,29.32,29.19,0,0,0,0.00
2013-5-21,90.0,74.5,61.6,64.6,24.2,4.5,47,12,1,29.27,29.13,0,0,0,0.21
2013-5-22,81.0,68.2,60.1,41.0,10.4,3.4,25,2,1,29.16,29.08,0,0,0,0.28
2013-5-23,70.7,58.5,48.4,11.3,2.1,-5.8,1,1,1,29.52,29.15,0,0,0,0.12
2013-5-24,73.8,55.2,44.8,48.7,12.1,-8.4,46,16,1,29.72,29.51,0,0,0,0.00
2013-5-25,66.4,55.0,41.6,43.2,12.4,-11.0,47,17,1,29.73,29.57,0,0,0,0.00
2013-5-26,73.8,61.0,50.0,50.2,14.1,-15.2,45,14,1,29.66,29.52,0,0,0,0.12
2013-5-27,83.7,64.6,53.6,25.8,6.9,-1.6,13,1,1,29.55,29.24,0,0,0,0.86
2013-5-28,84.4,73.1,62.8,21.8,13.3,5.5,1,1,1,29.33,29.25,0,0,0,0.01
2013-5-29,92.2,78.6,68.4,67.6,36.8,-5.1,49,23,1,29.39,29.30,0,0,0,0.00
2013-5-30,89.3,78.7,70.0,61.8,25.9,10.8,42,10,1,29.43,29.31,0,0,0,0.00
2013-5-31,76.7,71.4,65.3,16.1,12.1,7.4,1,1,1,29.37,29.23,0,0,0,0.61
2013-6-1,79.9,70.0,64.3,18.4,11.0,6.6,1,1,1,29.27,29.13,0,0,0,0.66
2013-6-2,79.2,66.1,58.1,17.9,8.0,1.6,1,1,1,29.35,29.16,0,0,0,0.01
2013-6-3,74.2,58.7,45.4,50.5,10.1,-8.1,45,10,1,29.46,29.35,0,0,0,0.00
2013-6-4,81.2,60.3,44.3,52.2,15.7,-8.9,45,15,1,29.51,29.42,0,0,0,0.00
2013-6-5,87.8,70.0,52.6,62.7,26.1,-2.5,45,18,1,29.45,29.23,0,0,0,0.00
2013-6-6,82.3,68.6,61.7,55.2,14.2,4.7,40,7,1,29.25,29.15,0,0,0,0.00
2013-6-7,79.2,66.7,58.0,36.0,8.8,-12.1,24,2,1,29.25,29.19,0,0,0,0.00
2013-6-8,83.5,69.7,56.3,55.8,17.9,0.5,40,9,1,29.38,29.25,0,0,0,0.00
2013-6-9,85.3,72.5,64.4,57.9,19.6,6.7,40,9,1,29.39,29.20,0,0,0,0.12
2013-6-10,79.0,70.8,64.4,17.6,11.6,6.7,1,1,1,29.23,29.14,0,0,0,0.31
2013-6-11,92.2,74.1,60.3,62.7,17.5,-9.5,39,5,1,29.34,29.23,0,0,0,0.00
2013-6-12,95.2,81.2,68.8,30.2,19.5,10.1,1,1,1,29.29,29.03,0,0,0,0.00
2013-6-13,84.1,73.2,63.2,46.2,15.7,4.9,32,4,1,29.35,28.98,0,0,0,0.78
2013-6-14,84.2,68.3,55.6,53.3,13.4,-13.2,36,5,1,29.45,29.31,0,0,0,0.00
2013-6-15,88.9,72.6,58.1,62.8,20.5,-13.9,43,10,1,29.47,29.30,0,0,0,0.00
2013-6-16,86.0,73.5,65.2,23.2,13.7,7.2,1,1,1,29.36,29.29,0,0,0,0.04
2013-6-17,91.3,76.2,65.2,61.3,18.4,-5.7,38,4,1,29.34,29.24,0,0,0,0.00
2013-6-18,88.7,74.8,63.2,56.3,17.8,-13.3,37,5,1,29.37,29.25,0,0,0,0.00
2013-6-19,86.0,72.2,58.7,59.7,20.7,2.3,41,10,1,29.48,29.37,0,0,0,0.00
2013-6-20,91.6,75.3,59.0,63.9,27.5,2.5,42,15,1,29.55,29.47,0,0,0,0.00
2013-6-21,93.6,78.6,66.6,65.2,31.0,-11.6,42,16,1,29.56,29.41,0,0,0,0.00
2013-6-22,96.8,76.6,69.1,66.2,17.0,-2.7,38,2,1,29.51,29.41,0,0,0,1.88
2013-6-23,91.4,74.0,65.5,27.4,14.0,7.6,1,1,1,29.48,29.40,0,0,0,0.00
2013-6-24,92.2,78.6,70.2,46.9,18.5,-8.2,22,3,1,29.50,29.36,0,0,0,0.00
2013-6-25,95.0,80.6,69.7,43.6,19.3,-7.1,18,2,1,29.39,29.23,0,0,0,0.07
2013-6-26,87.3,75.1,67.1,24.2,14.9,8.8,1,1,1,29.29,29.11,0,0,0,0.14
2013-6-27,92.0,78.8,67.7,27.7,17.7,9.3,1,1,1,29.17,29.07,0,0,0,0.00
2013-6-28,88.2,75.4,64.4,59.2,17.5,-15.1,39,4,1,29.08,28.97,0,0,0,0.00
2013-6-29,77.8,66.5,61.0,16.7,8.3,4.2,1,1,1,29.05,28.95,0,0,0,0.00
2013-6-30,78.5,68.5,63.7,17.3,9.9,6.1,1,1,1,29.25,29.05,0,0,0,0.00
2013-7-1,74.7,66.7,63.7,14.3,8.5,6.1,1,1,1,29.33,29.22,0,0,0,0.00
2013-7-2,77.6,66.5,61.2,16.7,8.3,4.2,1,1,1,29.38,29.31,0,0,0,0.00
2013-7-3,83.9,70.4,60.7,21.2,11.3,3.8,1,1,1,29.46,29.36,0,0,0,0.00
2013-7-4,81.0,69.9,61.6,19.1,10.9,4.5,1,1,1,29.51,29.43,0,0,0,0.00
2013-7-5,85.3,74.5,65.5,22.7,14.5,7.6,1,1,1,29.50,29.42,0,0,0,0.00
2013-7-6,74.7,71.0,67.7,14.6,11.7,9.3,1,1,1,29.48,29.39,0,0,0,0.00
2013-7-7,88.2,74.9,65.2,24.9,14.7,7.2,5,1,1,29.47,29.38,0,0,0,0.00
2013-7-8,90.2,79.0,68.9,26.2,17.8,10.2,1,1,1,29.48,29.38,0,0,0,0.00
2013-7-9,93.4,82.1,75.4,28.8,20.2,14.9,1,1,1,29.42,29.32,0,0,0,0.00
2013-7-10,88.9,79.2,69.8,25.2,18.0,10.8,1,1,1,29.35,29.20,0,0,0,0.00
2013-7-11,81.9,72.1,60.7,48.5,17.3,3.8,35,6,1,29.42,29.33,0,0,0,0.00
2013-7-12,84.8,70.0,56.5,55.2,19.6,-15.6,39,11,1,29.49,29.41,0,0,0,0.00
2013-7-13,88.0,73.5,59.4,37.9,14.0,2.8,18,2,1,29.51,29.45,0,0,0,0.00
2013-7-14,94.7,79.7,66.4,43.0,18.9,8.3,18,2,1,29.57,29.50,0,0,0,0.00
2013-7-15,93.8,82.6,73.4,31.2,20.6,13.7,12,2,1,29.66,29.57,0,0,0,0.00
2013-7-16,96.5,81.8,70.2,34.4,20.0,11.1,12,1,1,29.70,29.63,0,0,0,0.00
2013-7-17,97.9,83.4,72.4,59.6,24.1,12.8,29,4,1,29.71,29.56,0,0,0,0.00
2013-7-18,95.8,82.9,71.3,30.6,20.8,11.8,8,1,1,29.59,29.39,0,0,0,0.00
2013-7-19,97.9,84.3,73.8,57.3,24.5,14.0,27,4,1,29.41,29.24,0,0,0,0.00
2013-7-20,81.4,75.4,69.1,19.6,15.1,10.3,1,1,1,29.30,29.21,0,0,0,0.00
2013-7-21,88.2,76.5,66.2,24.9,15.9,8.1,1,1,1,29.34,29.24,0,0,0,0.00
2013-7-22,85.7,75.5,69.7,23.0,15.2,10.5,1,1,1,29.27,29.15,0,0,0,0.00
2013-7-23,94.9,78.2,67.3,59.1,21.0,8.8,31,5,1,29.26,29.13,0,0,0,0.00
2013-7-24,81.0,66.6,55.8,46.9,13.4,0.1,33,7,1,29.39,29.25,0,0,0,0.00
2013-7-25,83.3,67.4,51.7,53.5,18.9,-3.2,39,12,1,29.47,29.38,0,0,0,0.00
2013-7-26,86.2,70.8,55.1,55.1,20.5,-0.4,37,11,1,29.46,29.31,0,0,0,0.00
2013-7-27,84.1,71.7,62.3,51.4,20.1,2.7,37,10,1,29.32,29.21,0,0,0,0.00
2013-7-28,77.2,64.4,49.3,48.8,18.3,-5.0,38,14,1,29.41,29.29,0,0,0,0.00
2013-7-29,86.4,68.7,54.0,55.4,19.9,-1.3,39,12,1,29.55,29.40,0,0,0,0.00
2013-7-30,78.8,67.7,55.4,17.6,9.2,-0.2,1,1,1,29.58,29.46,0,0,0,0.00
2013-7-31,78.1,70.2,65.5,17.0,11.2,7.4,1,1,1,29.47,29.30,0,0,0,0.00
2013-8-1,87.8,74.0,63.5,56.7,22.6,6.0,39,10,1,29.37,29.31,0,0,0,0.00
2013-8-2,91.4,71.2,55.1,55.8,15.4,-0.4,32,5,1,29.36,29.30,0,0,0,0.00
2013-8-3,86.2,73.4,64.3,42.5,14.2,6.6,22,2,1,29.45,29.30,0,0,0,0.00
2013-8-4,83.2,67.7,56.0,47.5,14.7,0.2,30,7,1,29.53,29.44,0,0,0,0.00
2013-8-5,85.0,69.3,58.0,49.1,15.3,1.6,30,7,1,29.49,29.32,0,0,0,0.00
2013-8-6,88.0,72.4,63.7,24.7,12.8,6.1,1,1,1,29.33,29.27,0,0,0,0.00
2013-8-7,91.8,77.8,70.0,27.5,17.0,11.0,1,1,1,29.30,29.22,0,0,0,0.00
2013-8-8,86.9,76.3,70.2,23.9,15.8,11.1,1,1,1,29.32,29.27,0,0,0,0.00
2013-8-9,92.9,75.9,67.9,38.3,15.6,9.4,16,2,1,29.41,29.29,0,0,0,0.00
2013-8-10,95.8,76.2,66.1,55.0,18.6,7.9,26,4,1,29.47,29.40,0,0,0,0.00
2013-8-11,96.5,76.2,64.1,60.8,20.1,6.4,34,6,1,29.48,29.41,0,0,0,0.00
2013-8-12,96.5,75.8,63.5,58.6,19.0,-0.6,30,5,1,29.45,29.25,0,0,0,0.00
2013-8-13,81.4,69.8,57.4,42.1,14.1,1.3,31,5,1,29.47,29.24,0,0,0,0.00
2013-8-14,82.4,61.1,48.1,48.0,10.9,-6.0,39,9,1,29.56,29.46,0,0,0,0.00
2013-8-15,85.7,63.2,47.2,51.8,13.7,-6.7,38,10,1,29.55,29.47,0,0,0,0.00
2013-8-16,85.0,65.7,53.3,47.5,13.1,-1.9,31,7,1,29.54,29.48,0,0,0,0.00
2013-8-17,88.0,68.7,53.5,49.4,16.5,-1.8,31,8,1,29.57,29.50,0,0,0,0.00
2013-8-18,96.3,71.7,55.1,60.7,21.8,-0.4,37,11,1,29.56,29.46,0,0,0,0.00
2013-8-19,99.4,75.0,57.8,63.3,23.8,1.5,39,11,1,29.51,29.42,0,0,0,0.00
2013-8-20,96.7,76.4,61.0,59.5,23.3,4.2,33,9,1,29.53,29.44,0,0,0,0.00
2013-8-21,98.5,78.7,67.5,59.2,20.7,9.1,30,5,1,29.52,29.41,0,0,0,0.00
2013-8-22,90.9,75.2,66.6,26.9,15.0,8.4,1,1,1,29.47,29.37,0,0,0,0.00
2013-8-23,94.7,73.9,64.1,50.1,15.6,6.4,25,3,1,29.52,29.43,0,0,0,0.00
2013-8-24,102.1,74.5,54.0,59.4,24.2,-2.0,38,11,1,29.64,29.52,0,0,0,0.00
2013-8-25,102.8,76.3,57.2,63.3,26.8,-8.2,39,12,1,29.68,29.57,0,0,0,0.00
2013-8-26,100.4,78.4,62.3,56.9,20.4,5.1,26,5,1,29.60,29.44,0,0,0,0.00
2013-8-27,103.9,83.1,70.6,60.0,24.1,11.3,26,5,1,29.46,29.32,0,0,0,0.00
2013-8-28,102.2,83.9,74.3,35.5,21.6,14.3,8,1,1,29.36,29.28,0,0,0,0.00
2013-8-29,100.3,80.5,69.5,59.5,22.2,10.5,30,4,1,29.42,29.35,0,0,0,0.00
2013-8-30,106.6,82.4,66.4,67.5,26.5,8.1,33,7,1,29.37,29.19,0,0,0,0.00
2013-8-31,97.2,77.3,68.9,31.6,16.6,10.2,1,1,1,29.24,29.13,0,0,0,0.00
2013-9-1,95.8,77.3,68.0,30.6,16.5,9.5,1,1,1,29.19,29.13,0,0,0,0.00
2013-9-2,91.1,75.2,65.3,37.1,15.5,7.4,17,2,1,29.30,29.14,0,0,0,0.00
2013-9-3,83.7,65.7,51.8,35.5,8.7,-3.2,19,3,1,29.44,29.30,0,0,0,0.00
2013-9-4,94.0,68.9,52.2,57.5,16.1,-2.8,35,8,1,29.52,29.42,0,0,0,0.00
2013-9-5,94.3,71.6,57.6,43.2,13.0,1.3,19,2,1,29.56,29.48,0,0,0,0.00
2013-9-6,95.8,72.0,55.8,59.5,21.4,-0.1,35,10,1,29.60,29.45,0,0,0,0.00
2013-9-7,100.1,76.3,58.7,60.0,20.3,2.3,31,6,1,29.45,29.31,0,0,0,0.00
2013-9-8,101.5,78.7,64.8,52.1,18.5,6.9,22,2,1,29.36,29.29,0,0,0,0.00
2013-9-9,101.3,81.0,67.9,42.0,19.8,9.4,15,2,1,29.37,29.29,0,0,0,0.00
2013-9-10,107.3,85.6,74.7,64.8,28.0,2.1,32,6,1,29.47,29.35,0,0,0,0.00
2013-9-11,105.8,85.7,72.7,64.5,31.0,13.2,35,9,1,29.50,29.37,0,0,0,0.00
2013-9-12,90.2,74.8,64.6,27.4,15.2,6.7,17,2,1,29.38,29.24,0,0,0,0.00
2013-9-13,74.3,61.3,52.0,37.5,8.4,-3.1,31,6,1,29.47,29.35,0,0,0,0.00
2013-9-14,84.4,58.6,39.6,44.2,10.9,-29.2,39,11,1,29.56,29.45,0,0,0,0.00
2013-9-15,84.8,63.9,49.3,50.1,14.5,-5.0,37,10,1,29.49,29.37,0,0,0,0.00
2013-9-16,71.5,60.5,49.9,11.7,3.7,-4.6,1,1,1,29.64,29.45,0,0,0,0.00
2013-9-17,86.6,63.3,46.1,48.0,12.0,-7.5,32,8,1,29.68,29.51,0,0,0,0.00
2013-9-18,92.7,71.9,58.3,52.0,16.4,2.0,28,5,1,29.51,29.39,0,0,0,0.00
2013-9-19,87.5,73.3,66.2,24.4,13.5,8.1,1,1,1,29.44,29.29,0,0,0,0.00
2013-9-20,84.6,73.5,67.3,22.0,13.7,9.0,1,1,1,29.32,29.17,0,0,0,0.00
2013-9-21,76.1,63.2,51.5,22.6,6.1,-3.5,16,2,1,29.27,29.14,0,0,0,0.00
2013-9-22,77.2,56.8,44.3,37.4,3.9,-8.9,30,5,1,29.38,29.27,0,0,0,0.00
2013-9-23,83.5,59.6,42.8,47.0,9.2,-10.1,37,8,1,29.47,29.37,0,0,0,0.00
2013-9-24,90.0,63.6,45.7,51.0,10.2,-7.7,34,6,1,29.44,29.27,0,0,0,0.00
2013-9-25,92.0,65.5,51.5,53.7,14.1,-3.3,37,9,1,29.30,29.24,0,0,0,0.00
2013-9-26,92.9,67.0,45.5,55.3,15.6,-7.9,35,9,1,29.43,29.30,0,0,0,0.00
2013-9-27,95.8,68.6,45.5,57.0,20.4,-7.9,39,12,1,29.54,29.44,0,0,0,0.00
2013-9-28,92.5,67.5,48.2,53.5,15.4,-5.8,33,8,1,29.52,29.39,0,0,0,0.00
2013-9-29,67.0,63.2,59.2,8.6,5.8,2.7,1,1,1,29.40,29.34,0,0,0,0.00
2013-9-30,83.5,67.3,59.6,21.2,8.9,3.0,1,1,1,29.38,29.29,0,0,0,0.00
2013-10-1,83.3,67.8,60.7,20.9,9.3,3.8,1,1,1,29.43,29.34,0,0,0,0.00
2013-10-2,87.5,70.6,61.4,24.1,11.4,4.4,1,1,1,29.47,29.39,0,0,0,0.00
2013-10-3,87.1,73.3,67.0,23.5,13.5,8.6,1,1,1,29.42,29.32,0,0,0,0.00
2013-10-4,92.0,74.5,66.8,27.5,14.4,8.6,1,1,1,29.43,29.36,0,0,0,0.00
2013-10-5,76.3,71.1,66.4,15.9,11.8,8.3,1,1,1,29.39,29.23,0,0,0,0.00
2013-10-6,66.6,60.6,43.7,8.4,3.7,-9.5,1,1,1,29.27,29.11,0,0,0,0.00
2013-10-7,70.2,52.2,42.5,11.1,-2.7,-10.3,1,1,1,29.50,29.17,0,0,0,0.00
2013-10-8,82.3,58.3,43.2,44.5,7.7,-9.8,35,8,1,29.62,29.50,0,0,0,0.00
2013-10-9,86.8,58.4,39.6,50.0,7.8,-12.5,38,8,1,29.60,29.50,0,0,0,0.00
2013-10-10,87.1,61.8,42.5,50.1,13.6,-10.3,40,11,1,29.55,29.43,0,0,0,0.00
2013-10-11,93.6,61.2,42.5,54.7,12.0,-10.3,40,10,1,29.47,29.38,0,0,0,0.00
2013-10-12,91.3,63.9,45.7,48.5,10.7,-7.7,32,7,1,29.48,29.39,0,0,0,0.00
2013-10-13,78.8,62.9,51.5,43.9,13.2,-30.3,39,11,1,29.70,29.48,0,0,0,0.00
2013-10-14,83.9,55.9,38.7,46.1,7.1,-13.2,38,9,1,29.71,29.53,0,0,0,0.00
2013-10-15,66.2,58.5,48.6,8.1,2.1,-5.5,1,1,1,29.54,29.27,0,0,0,0.00
2013-10-16,71.8,58.3,40.9,12.4,2.0,-11.5,5,1,1,29.34,29.24,0,0,0,0.00
2013-10-17,56.2,45.3,37.8,0.2,-8.1,-13.9,1,1,1,29.32,29.24,0,0,0,0.00
2013-10-18,75.1,52.8,40.3,36.5,0.5,-11.9,31,4,1,29.35,29.27,0,0,0,0.00
2013-10-19,60.8,45.6,39.4,3.7,-7.8,-12.6,1,1,1,29.32,29.22,0,0,0,0.00
2013-10-20,71.5,51.8,38.9,35.3,3.1,-13.2,33,9,1,29.34,29.27,0,0,0,0.00
2013-10-21,68.8,53.8,40.9,10.1,-1.5,-11.5,1,1,1,29.36,29.25,0,0,0,0.00
2013-10-22,60.7,43.0,27.0,28.6,-1.7,-22.4,39,11,1,29.40,29.19,0,0,0,0.00
2013-10-23,51.3,40.1,33.5,-0.5,-12.1,-17.4,14,2,1,29.39,29.16,0,0,0,0.00
2013-10-24,44.5,38.6,31.1,-8.9,-13.3,-19.3,1,1,1,29.63,29.39,0,0,0,0.00
2013-10-25,58.7,37.9,24.5,28.9,-6.3,-24.4,39,11,1,29.78,29.59,0,0,0,0.00
2013-10-26,59.0,43.6,34.9,19.9,-4.3,-16.4,25,8,1,29.60,29.27,0,0,0,0.00
2013-10-27,69.5,42.5,27.0,36.6,-1.1,-22.4,43,12,1,29.46,29.39,0,0,0,0.00
2013-10-28,73.1,44.3,27.5,39.2,-0.3,-22.0,43,11,1,29.65,29.43,0,0,0,0.00
2013-10-29,63.0,46.0,31.5,5.5,-7.6,-18.8,1,1,1,29.70,29.54,0,0,0,0.00
2013-10-30,64.1,57.2,49.0,6.4,1.1,-5.2,1,1,1,29.54,29.30,0,0,0,0.00
2013-10-31,63.9,61.5,55.4,6.3,4.5,-0.4,1,1,1,29.31,28.65,0,0,0,0.00
2013-11-1,58.3,51.1,45.4,2.0,-3.6,-8.1,1,1,1,29.12,28.78,0,0,0,0.00
2013-11-2,58.0,46.9,39.8,1.5,-6.9,-12.5,1,1,1,29.47,29.11,0,0,0,0.00
2013-11-3,63.4,43.9,31.0,18.1,-7.9,-19.3,22,3,1,29.68,29.47,0,0,0,0.00
2013-11-4,56.0,48.0,38.2,0.1,-6.0,-13.7,1,1,1,29.70,29.60,0,0,0,0.00
2013-11-5,56.9,51.3,48.1,0.7,-3.4,-6.0,1,1,1,29.71,29.49,0,0,0,0.00
2013-11-6,58.3,53.1,41.6,2.0,-2.1,-11.0,1,1,1,29.49,29.29,0,0,0,0.00
2013-11-7,55.6,41.8,31.5,25.3,-3.9,-18.8,40,10,1,29.64,29.45,0,0,0,0.00
2013-11-8,61.9,41.0,26.6,28.5,-1.5,-22.9,39,13,1,29.72,29.53,0,0,0,0.00
2013-11-9,67.5,53.8,39.6,33.0,15.0,-6.0,36,22,1,29.52,29.34,0,0,0,0.00
2013-11-10,55.1,43.7,31.7,24.6,-1.3,-18.6,38,12,1,29.70,29.46,0,0,0,0.00
2013-11-11,51.5,44.6,29.2,12.7,-6.4,-20.7,21,5,1,29.67,29.44,0,0,0,0.00
2013-11-12,39.2,31.0,23.6,-12.8,-19.2,-25.1,6,1,1,29.97,29.69,0,0,0,0.00
2013-11-13,46.6,29.5,15.8,19.1,-6.1,-31.1,44,20,1,29.95,29.68,0,0,0,0.00
2013-11-14,60.5,43.4,29.7,23.6,14.7,-2.7,43,32,18,29.68,29.44,0,0,0,0.00
2013-11-15,58.0,45.1,39.6,29.7,21.7,-10.8,50,41,1,29.46,29.39,0,0,0,0.00
2013-11-16,59.9,51.5,41.8,3.1,-3.3,-10.8,1,1,1,29.42,29.12,0,0,0,0.00
2013-11-17,65.0,58.7,47.9,7.1,2.3,-6.0,1,1,1,29.16,28.75,0,0,0,0.00
2013-11-18,52.9,44.1,33.3,12.6,-7.3,-17.4,25,4,1,29.56,29.15,0,0,0,0.00
2013-11-19,52.2,35.6,25.7,-0.2,-15.6,-23.4,12,2,1,29.70,29.55,0,0,0,0.00
2013-11-20,54.4,37.6,22.3,-1.1,-14.1,-26.1,3,1,1,29.67,29.52,0,0,0,0.00
2013-11-21,51.5,47.1,43.0,-3.3,-6.8,-9.9,1,1,1,29.62,29.52,0,0,0,0.00
2013-11-22,51.5,44.1,32.0,-3.3,-9.1,-18.4,1,1,1,29.77,29.51,0,0,0,0.00
2013-11-23,34.0,28.5,22.5,-6.2,-18.1,-26.0,24,6,1,29.89,29.73,0,0,0,0.00
2013-11-24,35.8,24.8,16.4,11.1,2.3,-27.8,51,38,11,30.03,29.83,0,0,0,0.00
2013-11-25,33.7,28.5,18.9,12.6,4.8,-8.3,42,36,30,29.83,29.50,0,0,0,0.00
2013-11-26,37.4,33.5,29.9,12.1,-10.9,-20.2,42,11,1,29.53,29.31,0,0,0,0.00
2013-11-27,29.9,24.5,17.6,1.5,-14.6,-27.5,35,16,1,29.62,29.34,0,0,0,0.00
2013-11-28,42.1,26.4,16.2,16.8,-2.5,-30.7,51,30,1,29.78,29.58,0,0,0,0.00
2013-11-29,50.0,28.6,14.6,21.9,-6.4,-32.1,50,22,1,29.96,29.78,0,0,0,0.00
2013-11-30,57.2,39.1,27.5,28.2,5.0,-22.0,50,25,1,29.82,29.48,0,0,0,0.00
2013-12-1,59.2,40.0,27.4,29.2,3.7,-22.1,48,22,1,29.48,29.31,0,0,0,0.00
2013-12-2,54.2,39.9,32.0,-1.4,-12.3,-18.4,1,1,1,29.31,29.13,0,0,0,0.00
2013-12-3,50.0,43.4,34.2,-4.5,-9.6,-16.9,1,1,1,29.19,29.12,0,0,0,0.00
2013-12-4,60.1,52.3,45.5,3.4,-2.6,-7.9,1,1,1,29.17,29.00,0,0,0,0.00
2013-12-5,60.1,37.8,23.8,3.4,-14.0,-25.0,1,1,1,29.54,29.07,0,0,0,0.00
2013-12-6,37.1,25.3,22.7,-18.1,-23.9,-51.7,1,1,1,29.77,29.52,0,0,0,0.00
2013-12-7,139.7,21.7,11.7,14.2,-18.2,-59.5,42,13,1,29.96,29.76,0,0,0,0.00
2013-12-8,138.6,34.0,15.7,52.0,-18.3,-56.8,1,1,1,29.86,29.33,0,0,0,0.00
2013-12-9,139.9,55.8,-7.2,62.3,-2.8,-72.2,1,1,1,29.58,29.31,0,0,0,0.00
2013-12-10,139.9,88.1,-39.2,74.1,13.6,-93.9,20,2,1,29.66,29.47,0,0,0,0.00
2013-12-11,139.5,64.5,-39.2,62.3,1.5,-93.9,1,1,1,29.86,29.63,0,0,0,0.00
2013-12-12,139.7,6.0,-39.6,62.3,-25.1,-93.9,99,13,1,29.88,29.64,0,0,0,0.00
2013-12-13,139.7,14.1,-39.4,62.3,-26.5,-93.9,99,19,1,29.64,29.46,0,0,0,0.00
2013-12-14,139.9,77.6,-20.5,62.3,11.1,-81.8,1,1,1,29.47,29.09,0,0,0,0.00
2013-12-15,87.8,-2.5,-39.2,24.1,-26.7,-81.9,99,30,1,29.45,29.27,0,0,0,0.00
2013-12-16,0.0,0.0,0.0,0.0,-0.3,-67.3,1,1,1,29.46,29.32,0,0,0,0.00
2013-12-17,0.0,0.0,0.0,0.0,-0.2,-67.3,1,1,1,29.48,29.34,0,0,0,0.00
2013-12-18,0.0,0.0,0.0,0.0,-0.5,-35.2,89,13,1,29.51,29.33,0,0,0,0.00
2013-12-19,0.0,0.0,0.0,0.0,-2.1,-67.3,1,1,1,29.37,29.23,0,0,0,0.00
2013-12-20,0.0,-1.5,-20.9,0.0,-5.9,-81.4,1,1,1,29.23,29.11,0,0,0,0.00
2013-12-21,0.0,0.0,0.0,0.0,0.0,0.0,1,1,1,29.15,29.11,0,0,0,0.00